KCKN/CKN METAR and TAF weather

Enter ICAO airport designator
Station Type Date Time Source
KCKN METAR 2022/01/22 00:55 UTC NOAA

KCKN 220055Z AUTO 31022G29KT M07/M08 A2989 RMK AO2 PWINO


Station Type Date Time Source
KCKN Decoded METAR 2022/01/22 00:55 UTC NOAA

Crookston Municipal Field, MN, United States (KCKN) 47-51N 096-37W
Jan 21, 2022 - 07:55 PM EST / 2022.01.22 0055 UTC
Wind: from the NW (310 degrees) at 25 MPH (22 KT) gusting to 33 MPH (29 KT):0
Temperature: 19 F (-7 C)
Windchill: 1 F (-17 C):1
Dew Point: 17 F (-8 C)
Relative Humidity: 92%
Pressure (altimeter): 29.89 in. Hg (1012 hPa)
ob: KCKN 220055Z AUTO 31022G29KT M07/M08 A2989 RMK AO2 PWINO
cycle: 1

Station Type Date Time Source
KCKN TAF UTC NOAA

Error!

Example: see airport list